Main page
METAR-TAF:

METAR-TAF

Airports :

Baia Mare, Romania

Baia Mare Airport

latitude: 47-40N, longitude: 023-35E, elevation: 218 m

Current weather observation

The report was made 40 minutes ago, at 07:30 UTC
Temperature
Pressure 1029 hPa

METAR: LRBM 040730Z AUTO /////KT //// FEW023/// SCT120/// ///// Q1029

Time: 10:10 (08:10 UTC)

Forecast

The report was made 18 hours and 10 minutes ago, at 14:00 UTC
Forecast valid from 03 at 15 UTC to 03 at 24 UTC
Wind 8 kt from the West/Northwest
Visibility 10 km or more
Broken clouds at a height of 4000 ft
Temporary
from 03 at 15 UTC to 03 at 18 UTC
Visibility: 4000 m
Scattered clouds at a height of 1000 ft
Scattered clouds at a height of 3000 ft, Cumulonimbus.
Broken clouds at a height of 4000 ft
snow, snow showers

TAF: LRBM 031400Z 0315/0324 30008KT 9999 BKN040 TEMPO 0315/0318 4000 SN SHSN SCT010 SCT030CB BKN040

Weather observations and forecasts of more than 4000 airports (METAR and TAF reports).

The available stations are represented by yellow and red dots on the map.

Hover mouse over dot to see the name of the station.

Then click to see weather observations and forecasts.

To change the map : click on the green buttons with a black cross to zoom in, on the green button with a dash to zoom out, or on the green arrows for adjacent maps.


METAR-TAF: